sensor_id;sensor_type;location;lat;lon;timestamp;P1;durP1;ratioP1;P2;durP2;ratioP2
12776;SDS011;6452;41.572;23.732;2023-03-23T00:01:30;10.63;;;8.00;;
12776;SDS011;6452;41.572;23.732;2023-03-23T00:03:57;9.60;;;7.63;;
12776;SDS011;6452;41.572;23.732;2023-03-23T00:06:25;9.10;;;7.05;;
12776;SDS011;6452;41.572;23.732;2023-03-23T00:08:51;7.78;;;6.85;;
12776;SDS011;6452;41.572;23.732;2023-03-23T00:11:23;8.48;;;7.68;;
12776;SDS011;6452;41.572;23.732;2023-03-23T00:13:52;11.23;;;7.28;;
12776;SDS011;6452;41.572;23.732;2023-03-23T00:16:18;8.30;;;7.50;;
12776;SDS011;6452;41.572;23.732;2023-03-23T00:18:45;9.05;;;7.32;;
12776;SDS011;6452;41.572;23.732;2023-03-23T00:21:18;7.22;;;6.53;;
12776;SDS011;6452;41.572;23.732;2023-03-23T00:23:44;8.70;;;7.07;;
12776;SDS011;6452;41.572;23.732;2023-03-23T00:26:11;7.43;;;6.22;;
12776;SDS011;6452;41.572;23.732;2023-03-23T00:28:37;6.63;;;5.93;;
12776;SDS011;6452;41.572;23.732;2023-03-23T00:31:05;6.10;;;5.50;;
12776;SDS011;6452;41.572;23.732;2023-03-23T00:33:33;5.97;;;5.30;;
12776;SDS011;6452;41.572;23.732;2023-03-23T00:36:04;6.00;;;4.80;;
12776;SDS011;6452;41.572;23.732;2023-03-23T00:38:30;5.53;;;5.03;;
12776;SDS011;6452;41.572;23.732;2023-03-23T00:40:56;7.13;;;5.57;;
12776;SDS011;6452;41.572;23.732;2023-03-23T00:43:23;6.07;;;5.47;;
12776;SDS011;6452;41.572;23.732;2023-03-23T00:45:50;7.15;;;5.07;;
12776;SDS011;6452;41.572;23.732;2023-03-23T00:48:18;6.22;;;4.93;;
12776;SDS011;6452;41.572;23.732;2023-03-23T00:50:44;5.05;;;4.65;;
12776;SDS011;6452;41.572;23.732;2023-03-23T00:53:10;5.25;;;4.40;;
12776;SDS011;6452;41.572;23.732;2023-03-23T00:55:36;4.93;;;4.43;;
12776;SDS011;6452;41.572;23.732;2023-03-23T00:58:02;5.38;;;4.88;;
12776;SDS011;6452;41.572;23.732;2023-03-23T01:00:29;4.93;;;4.45;;
12776;SDS011;6452;41.572;23.732;2023-03-23T01:02:55;5.63;;;5.13;;
12776;SDS011;6452;41.572;23.732;2023-03-23T01:05:21;6.72;;;6.03;;
12776;SDS011;6452;41.572;23.732;2023-03-23T01:07:47;6.05;;;5.13;;
12776;SDS011;6452;41.572;23.732;2023-03-23T01:10:13;6.55;;;5.65;;
12776;SDS011;6452;41.572;23.732;2023-03-23T01:12:43;11.95;;;8.18;;
12776;SDS011;6452;41.572;23.732;2023-03-23T01:15:13;13.60;;;11.20;;
12776;SDS011;6452;41.572;23.732;2023-03-23T01:17:40;10.43;;;8.98;;
12776;SDS011;6452;41.572;23.732;2023-03-23T01:20:06;11.20;;;7.82;;
12776;SDS011;6452;41.572;23.732;2023-03-23T01:22:32;12.23;;;8.93;;
12776;SDS011;6452;41.572;23.732;2023-03-23T01:24:58;9.85;;;8.82;;
12776;SDS011;6452;41.572;23.732;2023-03-23T01:27:24;10.13;;;8.65;;
12776;SDS011;6452;41.572;23.732;2023-03-23T01:29:50;8.68;;;7.88;;
12776;SDS011;6452;41.572;23.732;2023-03-23T01:32:17;8.45;;;7.63;;
12776;SDS011;6452;41.572;23.732;2023-03-23T01:34:42;9.40;;;8.13;;
12776;SDS011;6452;41.572;23.732;2023-03-23T01:37:08;8.43;;;7.57;;
12776;SDS011;6452;41.572;23.732;2023-03-23T01:39:37;10.68;;;8.18;;
12776;SDS011;6452;41.572;23.732;2023-03-23T01:42:23;9.98;;;7.90;;
12776;SDS011;6452;41.572;23.732;2023-03-23T01:47:15;7.10;;;6.40;;
12776;SDS011;6452;41.572;23.732;2023-03-23T01:49:42;7.68;;;6.30;;
12776;SDS011;6452;41.572;23.732;2023-03-23T01:52:12;7.07;;;6.32;;
12776;SDS011;6452;41.572;23.732;2023-03-23T01:54:42;5.60;;;4.95;;
12776;SDS011;6452;41.572;23.732;2023-03-23T01:57:14;6.32;;;5.72;;
12776;SDS011;6452;41.572;23.732;2023-03-23T01:59:57;6.57;;;5.20;;
12776;SDS011;6452;41.572;23.732;2023-03-23T02:02:26;6.78;;;5.97;;
12776;SDS011;6452;41.572;23.732;2023-03-23T02:04:55;8.60;;;6.50;;
12776;SDS011;6452;41.572;23.732;2023-03-23T02:07:22;6.07;;;5.47;;
12776;SDS011;6452;41.572;23.732;2023-03-23T02:09:49;5.90;;;5.30;;
12776;SDS011;6452;41.572;23.732;2023-03-23T02:12:15;8.95;;;5.68;;
12776;SDS011;6452;41.572;23.732;2023-03-23T02:14:42;10.77;;;7.97;;
12776;SDS011;6452;41.572;23.732;2023-03-23T02:22:34;6.20;;;5.60;;
12776;SDS011;6452;41.572;23.732;2023-03-23T02:33:07;8.13;;;7.25;;
12776;SDS011;6452;41.572;23.732;2023-03-23T02:35:39;7.70;;;7.00;;
12776;SDS011;6452;41.572;23.732;2023-03-23T02:38:23;7.28;;;6.57;;
12776;SDS011;6452;41.572;23.732;2023-03-23T02:40:52;7.05;;;5.75;;
12776;SDS011;6452;41.572;23.732;2023-03-23T02:43:21;9.50;;;6.72;;
12776;SDS011;6452;41.572;23.732;2023-03-23T02:45:48;6.28;;;5.20;;
12776;SDS011;6452;41.572;23.732;2023-03-23T02:48:15;5.70;;;5.15;;
12776;SDS011;6452;41.572;23.732;2023-03-23T02:50:42;5.45;;;4.95;;
12776;SDS011;6452;41.572;23.732;2023-03-23T02:53:09;5.43;;;4.93;;
12776;SDS011;6452;41.572;23.732;2023-03-23T02:55:36;5.53;;;5.03;;
12776;SDS011;6452;41.572;23.732;2023-03-23T02:58:06;5.88;;;5.38;;
12776;SDS011;6452;41.572;23.732;2023-03-23T03:00:31;5.63;;;5.10;;
12776;SDS011;6452;41.572;23.732;2023-03-23T03:02:57;5.45;;;4.93;;
12776;SDS011;6452;41.572;23.732;2023-03-23T03:11:03;5.20;;;4.80;;
12776;SDS011;6452;41.572;23.732;2023-03-23T03:18:47;9.77;;;8.77;;
12776;SDS011;6452;41.572;23.732;2023-03-23T03:21:17;10.50;;;9.43;;
12776;SDS011;6452;41.572;23.732;2023-03-23T03:23:45;12.00;;;10.80;;
12776;SDS011;6452;41.572;23.732;2023-03-23T03:26:14;9.98;;;8.65;;
12776;SDS011;6452;41.572;23.732;2023-03-23T03:28:45;9.07;;;8.00;;
12776;SDS011;6452;41.572;23.732;2023-03-23T03:31:13;8.25;;;7.45;;
12776;SDS011;6452;41.572;23.732;2023-03-23T03:33:41;10.00;;;7.97;;
12776;SDS011;6452;41.572;23.732;2023-03-23T03:36:07;8.73;;;7.32;;
12776;SDS011;6452;41.572;23.732;2023-03-23T03:38:43;6.22;;;5.65;;
12776;SDS011;6452;41.572;23.732;2023-03-23T03:41:09;6.50;;;5.85;;
12776;SDS011;6452;41.572;23.732;2023-03-23T03:43:35;6.18;;;5.45;;
12776;SDS011;6452;41.572;23.732;2023-03-23T03:46:01;6.07;;;5.47;;
12776;SDS011;6452;41.572;23.732;2023-03-23T03:48:27;10.95;;;8.18;;
12776;SDS011;6452;41.572;23.732;2023-03-23T03:50:53;16.17;;;10.30;;
12776;SDS011;6452;41.572;23.732;2023-03-23T03:53:22;18.30;;;12.75;;
12776;SDS011;6452;41.572;23.732;2023-03-23T03:55:49;15.60;;;12.10;;
12776;SDS011;6452;41.572;23.732;2023-03-23T03:58:15;15.80;;;10.73;;
12776;SDS011;6452;41.572;23.732;2023-03-23T04:00:41;12.32;;;9.15;;
12776;SDS011;6452;41.572;23.732;2023-03-23T04:03:07;9.88;;;8.07;;
12776;SDS011;6452;41.572;23.732;2023-03-23T04:05:34;12.60;;;9.57;;
12776;SDS011;6452;41.572;23.732;2023-03-23T04:08:03;15.98;;;8.93;;
12776;SDS011;6452;41.572;23.732;2023-03-23T04:10:29;11.52;;;9.20;;
12776;SDS011;6452;41.572;23.732;2023-03-23T04:12:56;32.85;;;19.73;;
12776;SDS011;6452;41.572;23.732;2023-03-23T04:15:22;19.13;;;13.90;;
12776;SDS011;6452;41.572;23.732;2023-03-23T04:17:48;23.48;;;15.48;;
12776;SDS011;6452;41.572;23.732;2023-03-23T04:20:15;23.50;;;17.05;;
12776;SDS011;6452;41.572;23.732;2023-03-23T04:22:46;17.77;;;12.05;;
12776;SDS011;6452;41.572;23.732;2023-03-23T04:25:15;22.45;;;17.15;;
12776;SDS011;6452;41.572;23.732;2023-03-23T04:27:41;19.45;;;15.50;;
12776;SDS011;6452;41.572;23.732;2023-03-23T04:30:11;10.93;;;9.05;;
12776;SDS011;6452;41.572;23.732;2023-03-23T04:32:38;10.35;;;8.23;;
12776;SDS011;6452;41.572;23.732;2023-03-23T04:35:08;8.90;;;8.00;;
12776;SDS011;6452;41.572;23.732;2023-03-23T04:37:36;9.32;;;7.80;;
12776;SDS011;6452;41.572;23.732;2023-03-23T04:40:03;12.13;;;9.18;;
12776;SDS011;6452;41.572;23.732;2023-03-23T04:42:34;11.07;;;9.48;;
12776;SDS011;6452;41.572;23.732;2023-03-23T04:45:00;22.63;;;11.98;;
12776;SDS011;6452;41.572;23.732;2023-03-23T04:47:27;12.13;;;9.43;;
12776;SDS011;6452;41.572;23.732;2023-03-23T04:49:55;7.38;;;5.90;;
12776;SDS011;6452;41.572;23.732;2023-03-23T04:52:21;6.10;;;5.53;;
12776;SDS011;6452;41.572;23.732;2023-03-23T04:54:50;6.35;;;5.10;;
12776;SDS011;6452;41.572;23.732;2023-03-23T04:57:16;7.75;;;6.97;;
12776;SDS011;6452;41.572;23.732;2023-03-23T04:59:42;10.88;;;8.07;;
12776;SDS011;6452;41.572;23.732;2023-03-23T05:02:09;22.73;;;8.15;;
12776;SDS011;6452;41.572;23.732;2023-03-23T05:04:35;8.25;;;7.38;;
12776;SDS011;6452;41.572;23.732;2023-03-23T05:07:03;12.73;;;10.88;;
12776;SDS011;6452;41.572;23.732;2023-03-23T05:09:29;13.00;;;9.93;;
12776;SDS011;6452;41.572;23.732;2023-03-23T05:11:55;8.50;;;7.68;;
12776;SDS011;6452;41.572;23.732;2023-03-23T05:14:23;8.18;;;7.38;;
12776;SDS011;6452;41.572;23.732;2023-03-23T05:16:49;11.27;;;10.18;;
12776;SDS011;6452;41.572;23.732;2023-03-23T05:19:17;12.18;;;10.20;;
12776;SDS011;6452;41.572;23.732;2023-03-23T05:21:43;12.82;;;9.32;;
12776;SDS011;6452;41.572;23.732;2023-03-23T05:24:10;12.18;;;10.82;;
12776;SDS011;6452;41.572;23.732;2023-03-23T05:26:36;15.07;;;13.48;;
12776;SDS011;6452;41.572;23.732;2023-03-23T05:29:06;15.95;;;13.65;;
12776;SDS011;6452;41.572;23.732;2023-03-23T05:31:32;17.73;;;14.23;;
12776;SDS011;6452;41.572;23.732;2023-03-23T05:33:58;17.83;;;14.18;;
12776;SDS011;6452;41.572;23.732;2023-03-23T05:36:24;19.00;;;15.93;;
12776;SDS011;6452;41.572;23.732;2023-03-23T05:38:50;19.55;;;16.00;;
12776;SDS011;6452;41.572;23.732;2023-03-23T05:41:16;17.33;;;14.77;;
12776;SDS011;6452;41.572;23.732;2023-03-23T05:43:43;17.52;;;15.63;;
12776;SDS011;6452;41.572;23.732;2023-03-23T05:46:09;21.52;;;15.77;;
12776;SDS011;6452;41.572;23.732;2023-03-23T05:48:35;15.48;;;13.15;;
12776;SDS011;6452;41.572;23.732;2023-03-23T05:51:02;18.15;;;13.63;;
12776;SDS011;6452;41.572;23.732;2023-03-23T05:53:28;17.02;;;14.20;;
12776;SDS011;6452;41.572;23.732;2023-03-23T05:55:59;15.82;;;13.20;;
12776;SDS011;6452;41.572;23.732;2023-03-23T05:58:26;13.75;;;11.95;;
12776;SDS011;6452;41.572;23.732;2023-03-23T06:00:52;18.42;;;11.52;;
12776;SDS011;6452;41.572;23.732;2023-03-23T06:03:18;13.55;;;10.65;;
12776;SDS011;6452;41.572;23.732;2023-03-23T06:05:45;6.85;;;6.15;;
12776;SDS011;6452;41.572;23.732;2023-03-23T06:08:11;8.80;;;7.90;;
12776;SDS011;6452;41.572;23.732;2023-03-23T06:10:36;8.25;;;7.45;;
12776;SDS011;6452;41.572;23.732;2023-03-23T06:13:03;7.05;;;6.45;;
12776;SDS011;6452;41.572;23.732;2023-03-23T06:15:29;9.77;;;7.05;;
12776;SDS011;6452;41.572;23.732;2023-03-23T06:18:02;8.90;;;7.57;;
12776;SDS011;6452;41.572;23.732;2023-03-23T06:20:29;12.55;;;11.27;;
12776;SDS011;6452;41.572;23.732;2023-03-23T06:22:55;11.90;;;10.68;;
12776;SDS011;6452;41.572;23.732;2023-03-23T06:25:22;11.15;;;10.05;;
12776;SDS011;6452;41.572;23.732;2023-03-23T06:27:49;9.23;;;8.32;;
12776;SDS011;6452;41.572;23.732;2023-03-23T06:30:17;10.77;;;9.63;;
12776;SDS011;6452;41.572;23.732;2023-03-23T06:32:43;9.48;;;8.50;;
12776;SDS011;6452;41.572;23.732;2023-03-23T06:35:11;8.32;;;7.45;;
12776;SDS011;6452;41.572;23.732;2023-03-23T06:37:38;9.00;;;8.10;;
12776;SDS011;6452;41.572;23.732;2023-03-23T06:40:04;8.18;;;7.32;;
12776;SDS011;6452;41.572;23.732;2023-03-23T06:42:35;8.60;;;7.38;;
12776;SDS011;6452;41.572;23.732;2023-03-23T06:45:01;9.00;;;8.10;;
12776;SDS011;6452;41.572;23.732;2023-03-23T06:47:27;7.93;;;7.20;;
12776;SDS011;6452;41.572;23.732;2023-03-23T06:49:58;6.07;;;5.35;;
12776;SDS011;6452;41.572;23.732;2023-03-23T06:52:24;6.32;;;5.80;;
12776;SDS011;6452;41.572;23.732;2023-03-23T06:54:51;6.00;;;5.40;;
12776;SDS011;6452;41.572;23.732;2023-03-23T06:57:18;5.50;;;5.10;;
12776;SDS011;6452;41.572;23.732;2023-03-23T06:59:44;5.10;;;4.70;;
12776;SDS011;6452;41.572;23.732;2023-03-23T07:02:11;5.85;;;5.35;;
12776;SDS011;6452;41.572;23.732;2023-03-23T07:04:38;5.78;;;5.28;;
12776;SDS011;6452;41.572;23.732;2023-03-23T07:07:04;7.75;;;5.78;;
12776;SDS011;6452;41.572;23.732;2023-03-23T07:09:31;6.10;;;5.50;;
12776;SDS011;6452;41.572;23.732;2023-03-23T07:11:57;5.05;;;4.65;;
12776;SDS011;6452;41.572;23.732;2023-03-23T07:14:24;5.35;;;4.90;;
12776;SDS011;6452;41.572;23.732;2023-03-23T07:16:50;5.25;;;4.85;;
12776;SDS011;6452;41.572;23.732;2023-03-23T07:19:15;5.55;;;5.13;;
12776;SDS011;6452;41.572;23.732;2023-03-23T07:21:42;5.05;;;4.65;;
12776;SDS011;6452;41.572;23.732;2023-03-23T07:24:11;5.95;;;5.38;;
12776;SDS011;6452;41.572;23.732;2023-03-23T07:26:42;4.80;;;4.40;;
12776;SDS011;6452;41.572;23.732;2023-03-23T07:29:08;4.40;;;4.07;;
12776;SDS011;6452;41.572;23.732;2023-03-23T07:31:34;5.97;;;4.53;;
12776;SDS011;6452;41.572;23.732;2023-03-23T07:34:00;4.88;;;4.47;;
12776;SDS011;6452;41.572;23.732;2023-03-23T07:36:26;5.03;;;4.63;;
12776;SDS011;6452;41.572;23.732;2023-03-23T07:38:52;6.03;;;4.93;;
12776;SDS011;6452;41.572;23.732;2023-03-23T07:41:19;5.10;;;4.60;;
12776;SDS011;6452;41.572;23.732;2023-03-23T07:43:45;4.75;;;4.40;;
12776;SDS011;6452;41.572;23.732;2023-03-23T07:46:11;4.38;;;3.97;;
12776;SDS011;6452;41.572;23.732;2023-03-23T07:48:38;4.30;;;4.00;;
12776;SDS011;6452;41.572;23.732;2023-03-23T07:51:04;4.45;;;4.15;;
12776;SDS011;6452;41.572;23.732;2023-03-23T07:53:32;3.85;;;3.65;;
12776;SDS011;6452;41.572;23.732;2023-03-23T07:55:58;4.47;;;4.18;;
12776;SDS011;6452;41.572;23.732;2023-03-23T07:58:25;5.15;;;4.40;;
12776;SDS011;6452;41.572;23.732;2023-03-23T08:00:53;4.50;;;4.10;;
12776;SDS011;6452;41.572;23.732;2023-03-23T08:03:22;4.53;;;4.20;;
12776;SDS011;6452;41.572;23.732;2023-03-23T08:05:48;5.03;;;4.60;;
12776;SDS011;6452;41.572;23.732;2023-03-23T08:08:15;4.70;;;4.40;;
12776;SDS011;6452;41.572;23.732;2023-03-23T08:10:41;5.07;;;4.68;;
12776;SDS011;6452;41.572;23.732;2023-03-23T08:13:07;6.95;;;4.90;;
12776;SDS011;6452;41.572;23.732;2023-03-23T08:15:34;5.35;;;4.95;;
12776;SDS011;6452;41.572;23.732;2023-03-23T08:18:03;5.30;;;4.80;;
12776;SDS011;6452;41.572;23.732;2023-03-23T08:20:28;4.85;;;4.45;;
12776;SDS011;6452;41.572;23.732;2023-03-23T08:22:55;5.68;;;4.75;;
12776;SDS011;6452;41.572;23.732;2023-03-23T08:25:22;4.15;;;3.85;;
12776;SDS011;6452;41.572;23.732;2023-03-23T08:27:50;3.80;;;3.60;;
12776;SDS011;6452;41.572;23.732;2023-03-23T08:30:16;4.07;;;3.78;;
12776;SDS011;6452;41.572;23.732;2023-03-23T08:32:42;4.00;;;3.70;;
12776;SDS011;6452;41.572;23.732;2023-03-23T08:35:09;3.88;;;3.67;;
12776;SDS011;6452;41.572;23.732;2023-03-23T08:37:36;3.90;;;3.60;;
12776;SDS011;6452;41.572;23.732;2023-03-23T08:40:03;3.92;;;3.63;;
12776;SDS011;6452;41.572;23.732;2023-03-23T08:42:36;3.40;;;3.20;;
12776;SDS011;6452;41.572;23.732;2023-03-23T08:45:03;3.78;;;3.47;;
12776;SDS011;6452;41.572;23.732;2023-03-23T08:47:29;3.95;;;3.70;;
12776;SDS011;6452;41.572;23.732;2023-03-23T08:49:56;3.97;;;3.65;;
12776;SDS011;6452;41.572;23.732;2023-03-23T08:52:22;3.70;;;3.40;;
12776;SDS011;6452;41.572;23.732;2023-03-23T08:54:49;3.65;;;3.42;;
12776;SDS011;6452;41.572;23.732;2023-03-23T08:57:15;3.60;;;3.33;;
12776;SDS011;6452;41.572;23.732;2023-03-23T08:59:41;3.53;;;2.90;;
12776;SDS011;6452;41.572;23.732;2023-03-23T09:02:10;3.55;;;3.35;;
12776;SDS011;6452;41.572;23.732;2023-03-23T09:04:40;3.03;;;2.83;;
12776;SDS011;6452;41.572;23.732;2023-03-23T09:07:08;2.60;;;2.50;;
12776;SDS011;6452;41.572;23.732;2023-03-23T09:09:35;2.80;;;2.70;;
12776;SDS011;6452;41.572;23.732;2023-03-23T09:12:01;2.83;;;2.72;;
12776;SDS011;6452;41.572;23.732;2023-03-23T09:14:27;2.17;;;2.08;;
12776;SDS011;6452;41.572;23.732;2023-03-23T09:16:53;2.30;;;2.08;;
12776;SDS011;6452;41.572;23.732;2023-03-23T09:19:18;2.33;;;2.22;;
12776;SDS011;6452;41.572;23.732;2023-03-23T09:21:45;2.22;;;2.13;;
12776;SDS011;6452;41.572;23.732;2023-03-23T09:24:12;2.22;;;2.13;;
12776;SDS011;6452;41.572;23.732;2023-03-23T09:26:37;2.30;;;2.20;;
12776;SDS011;6452;41.572;23.732;2023-03-23T09:29:03;2.15;;;2.05;;
12776;SDS011;6452;41.572;23.732;2023-03-23T09:31:30;2.50;;;2.30;;
12776;SDS011;6452;41.572;23.732;2023-03-23T09:33:57;2.30;;;2.20;;
12776;SDS011;6452;41.572;23.732;2023-03-23T09:36:24;1.95;;;1.95;;
12776;SDS011;6452;41.572;23.732;2023-03-23T09:38:51;2.63;;;2.33;;
12776;SDS011;6452;41.572;23.732;2023-03-23T09:42:05;2.40;;;2.30;;
12776;SDS011;6452;41.572;23.732;2023-03-23T09:49:16;2.00;;;2.00;;
12776;SDS011;6452;41.572;23.732;2023-03-23T09:51:45;2.35;;;2.25;;
12776;SDS011;6452;41.572;23.732;2023-03-23T09:56:53;2.00;;;1.90;;
12776;SDS011;6452;41.572;23.732;2023-03-23T10:01:53;2.30;;;2.22;;
12776;SDS011;6452;41.572;23.732;2023-03-23T10:04:36;1.90;;;1.90;;
12776;SDS011;6452;41.572;23.732;2023-03-23T10:07:11;2.00;;;1.90;;
12776;SDS011;6452;41.572;23.732;2023-03-23T10:09:41;2.20;;;2.08;;
12776;SDS011;6452;41.572;23.732;2023-03-23T10:17:23;2.08;;;1.98;;
12776;SDS011;6452;41.572;23.732;2023-03-23T10:22:35;2.28;;;2.17;;
12776;SDS011;6452;41.572;23.732;2023-03-23T10:25:08;2.10;;;2.00;;
12776;SDS011;6452;41.572;23.732;2023-03-23T10:27:56;2.30;;;2.20;;
12776;SDS011;6452;41.572;23.732;2023-03-23T10:33:01;1.75;;;1.75;;
12776;SDS011;6452;41.572;23.732;2023-03-23T10:35:30;1.92;;;1.90;;
12776;SDS011;6452;41.572;23.732;2023-03-23T10:38:00;1.88;;;1.80;;
12776;SDS011;6452;41.572;23.732;2023-03-23T10:40:28;2.17;;;1.95;;
12776;SDS011;6452;41.572;23.732;2023-03-23T10:42:55;1.60;;;1.60;;
12776;SDS011;6452;41.572;23.732;2023-03-23T10:45:24;2.30;;;2.20;;
12776;SDS011;6452;41.572;23.732;2023-03-23T10:47:56;2.00;;;2.00;;
12776;SDS011;6452;41.572;23.732;2023-03-23T10:50:28;2.40;;;2.30;;
12776;SDS011;6452;41.572;23.732;2023-03-23T10:52:56;5.53;;;2.47;;
12776;SDS011;6452;41.572;23.732;2023-03-23T10:55:23;2.05;;;2.00;;
12776;SDS011;6452;41.572;23.732;2023-03-23T10:58:02;2.50;;;2.40;;
12776;SDS011;6452;41.572;23.732;2023-03-23T11:00:29;1.98;;;1.95;;
12776;SDS011;6452;41.572;23.732;2023-03-23T11:03:05;1.77;;;1.77;;
12776;SDS011;6452;41.572;23.732;2023-03-23T11:05:36;2.40;;;2.20;;
12776;SDS011;6452;41.572;23.732;2023-03-23T11:08:03;2.60;;;2.50;;
12776;SDS011;6452;41.572;23.732;2023-03-23T11:10:51;2.45;;;2.35;;
12776;SDS011;6452;41.572;23.732;2023-03-23T11:13:16;2.75;;;2.55;;
12776;SDS011;6452;41.572;23.732;2023-03-23T11:15:43;1.95;;;1.95;;
12776;SDS011;6452;41.572;23.732;2023-03-23T11:18:13;2.10;;;2.00;;
12776;SDS011;6452;41.572;23.732;2023-03-23T11:20:44;1.75;;;1.75;;
12776;SDS011;6452;41.572;23.732;2023-03-23T11:28:38;2.50;;;2.30;;
12776;SDS011;6452;41.572;23.732;2023-03-23T11:31:07;2.60;;;2.50;;
12776;SDS011;6452;41.572;23.732;2023-03-23T11:33:47;1.80;;;1.80;;
12776;SDS011;6452;41.572;23.732;2023-03-23T11:36:15;2.45;;;2.40;;
12776;SDS011;6452;41.572;23.732;2023-03-23T11:38:42;2.25;;;2.15;;
12776;SDS011;6452;41.572;23.732;2023-03-23T11:41:09;1.90;;;1.90;;
12776;SDS011;6452;41.572;23.732;2023-03-23T11:43:38;2.10;;;2.00;;
12776;SDS011;6452;41.572;23.732;2023-03-23T11:56:37;1.98;;;1.98;;
12776;SDS011;6452;41.572;23.732;2023-03-23T11:59:08;1.90;;;1.90;;
12776;SDS011;6452;41.572;23.732;2023-03-23T12:01:46;2.25;;;2.15;;
12776;SDS011;6452;41.572;23.732;2023-03-23T12:12:40;2.10;;;2.10;;
12776;SDS011;6452;41.572;23.732;2023-03-23T12:18:09;2.20;;;2.10;;
12776;SDS011;6452;41.572;23.732;2023-03-23T12:25:55;2.58;;;2.17;;
12776;SDS011;6452;41.572;23.732;2023-03-23T12:41:16;2.20;;;2.10;;
12776;SDS011;6452;41.572;23.732;2023-03-23T12:48:44;2.20;;;2.10;;
12776;SDS011;6452;41.572;23.732;2023-03-23T12:51:15;2.35;;;2.25;;
12776;SDS011;6452;41.572;23.732;2023-03-23T12:58:51;2.08;;;2.08;;
12776;SDS011;6452;41.572;23.732;2023-03-23T13:01:21;3.15;;;2.95;;
12776;SDS011;6452;41.572;23.732;2023-03-23T13:04:05;2.13;;;2.03;;
12776;SDS011;6452;41.572;23.732;2023-03-23T13:06:37;2.30;;;2.20;;
12776;SDS011;6452;41.572;23.732;2023-03-23T13:09:17;2.35;;;2.25;;
12776;SDS011;6452;41.572;23.732;2023-03-23T13:11:44;2.30;;;2.20;;
12776;SDS011;6452;41.572;23.732;2023-03-23T13:19:34;2.40;;;2.30;;
12776;SDS011;6452;41.572;23.732;2023-03-23T13:25:06;2.33;;;1.88;;
12776;SDS011;6452;41.572;23.732;2023-03-23T13:27:34;2.50;;;2.30;;
12776;SDS011;6452;41.572;23.732;2023-03-23T13:30:00;2.28;;;2.00;;
12776;SDS011;6452;41.572;23.732;2023-03-23T13:32:37;2.40;;;2.20;;
12776;SDS011;6452;41.572;23.732;2023-03-23T13:35:03;4.10;;;1.88;;
12776;SDS011;6452;41.572;23.732;2023-03-23T13:37:31;2.40;;;2.30;;
12776;SDS011;6452;41.572;23.732;2023-03-23T13:39:59;2.40;;;2.30;;
12776;SDS011;6452;41.572;23.732;2023-03-23T13:42:26;2.65;;;2.55;;
12776;SDS011;6452;41.572;23.732;2023-03-23T13:49:49;2.90;;;2.80;;
12776;SDS011;6452;41.572;23.732;2023-03-23T13:54:46;3.05;;;2.85;;
12776;SDS011;6452;41.572;23.732;2023-03-23T13:59:58;2.22;;;2.17;;
12776;SDS011;6452;41.572;23.732;2023-03-23T14:02:35;4.07;;;3.78;;
12776;SDS011;6452;41.572;23.732;2023-03-23T14:05:11;2.60;;;2.40;;
12776;SDS011;6452;41.572;23.732;2023-03-23T14:10:31;3.03;;;2.83;;
12776;SDS011;6452;41.572;23.732;2023-03-23T14:12:57;2.92;;;2.70;;
12776;SDS011;6452;41.572;23.732;2023-03-23T14:15:27;2.30;;;2.20;;
12776;SDS011;6452;41.572;23.732;2023-03-23T14:17:53;2.80;;;2.60;;
12776;SDS011;6452;41.572;23.732;2023-03-23T14:20:29;2.90;;;2.70;;
12776;SDS011;6452;41.572;23.732;2023-03-23T14:22:57;2.80;;;2.60;;
12776;SDS011;6452;41.572;23.732;2023-03-23T14:25:26;3.10;;;2.90;;
12776;SDS011;6452;41.572;23.732;2023-03-23T14:27:52;3.30;;;3.20;;
12776;SDS011;6452;41.572;23.732;2023-03-23T14:30:24;4.85;;;3.47;;
12776;SDS011;6452;41.572;23.732;2023-03-23T14:32:51;5.70;;;3.85;;
12776;SDS011;6452;41.572;23.732;2023-03-23T14:37:43;6.10;;;3.92;;
12776;SDS011;6452;41.572;23.732;2023-03-23T14:40:14;3.75;;;3.55;;
12776;SDS011;6452;41.572;23.732;2023-03-23T14:42:40;4.38;;;4.10;;
12776;SDS011;6452;41.572;23.732;2023-03-23T14:45:06;4.65;;;4.20;;
12776;SDS011;6452;41.572;23.732;2023-03-23T14:47:35;6.35;;;5.75;;
12776;SDS011;6452;41.572;23.732;2023-03-23T14:50:05;6.50;;;5.90;;
12776;SDS011;6452;41.572;23.732;2023-03-23T14:52:35;5.03;;;4.30;;
12776;SDS011;6452;41.572;23.732;2023-03-23T14:55:34;5.70;;;5.20;;
12776;SDS011;6452;41.572;23.732;2023-03-23T14:58:05;5.13;;;4.72;;
12776;SDS011;6452;41.572;23.732;2023-03-23T15:00:33;5.45;;;4.97;;
12776;SDS011;6452;41.572;23.732;2023-03-23T15:03:00;5.05;;;4.55;;
12776;SDS011;6452;41.572;23.732;2023-03-23T15:05:37;4.13;;;3.83;;
12776;SDS011;6452;41.572;23.732;2023-03-23T15:08:05;4.88;;;4.30;;
12776;SDS011;6452;41.572;23.732;2023-03-23T15:10:32;3.83;;;3.53;;
12776;SDS011;6452;41.572;23.732;2023-03-23T15:12:58;5.13;;;4.53;;
12776;SDS011;6452;41.572;23.732;2023-03-23T15:15:27;5.68;;;5.10;;
12776;SDS011;6452;41.572;23.732;2023-03-23T15:17:54;4.63;;;4.22;;
12776;SDS011;6452;41.572;23.732;2023-03-23T15:20:26;4.65;;;4.35;;
12776;SDS011;6452;41.572;23.732;2023-03-23T15:22:52;7.85;;;6.55;;
12776;SDS011;6452;41.572;23.732;2023-03-23T15:27:57;7.05;;;4.47;;
12776;SDS011;6452;41.572;23.732;2023-03-23T15:32:53;3.80;;;3.55;;
12776;SDS011;6452;41.572;23.732;2023-03-23T15:35:23;4.53;;;3.63;;
12776;SDS011;6452;41.572;23.732;2023-03-23T15:37:52;3.72;;;3.53;;
12776;SDS011;6452;41.572;23.732;2023-03-23T15:40:21;3.92;;;3.72;;
12776;SDS011;6452;41.572;23.732;2023-03-23T15:42:49;5.88;;;5.28;;
12776;SDS011;6452;41.572;23.732;2023-03-23T15:45:27;5.50;;;5.00;;
12776;SDS011;6452;41.572;23.732;2023-03-23T15:47:53;7.32;;;6.38;;
12776;SDS011;6452;41.572;23.732;2023-03-23T15:52:51;9.07;;;6.30;;
12776;SDS011;6452;41.572;23.732;2023-03-23T15:55:19;8.85;;;7.95;;
12776;SDS011;6452;41.572;23.732;2023-03-23T15:57:45;12.30;;;9.23;;
12776;SDS011;6452;41.572;23.732;2023-03-23T16:00:11;8.23;;;7.18;;
12776;SDS011;6452;41.572;23.732;2023-03-23T16:02:38;7.55;;;6.85;;
12776;SDS011;6452;41.572;23.732;2023-03-23T16:05:05;8.73;;;7.60;;
12776;SDS011;6452;41.572;23.732;2023-03-23T16:07:31;8.65;;;6.85;;
12776;SDS011;6452;41.572;23.732;2023-03-23T16:09:57;6.80;;;5.70;;
12776;SDS011;6452;41.572;23.732;2023-03-23T16:12:23;7.03;;;6.40;;
12776;SDS011;6452;41.572;23.732;2023-03-23T16:14:49;7.18;;;6.57;;
12776;SDS011;6452;41.572;23.732;2023-03-23T16:17:18;6.40;;;5.78;;
12776;SDS011;6452;41.572;23.732;2023-03-23T16:19:43;7.85;;;6.55;;
12776;SDS011;6452;41.572;23.732;2023-03-23T16:22:10;8.48;;;6.97;;
12776;SDS011;6452;41.572;23.732;2023-03-23T16:24:36;7.55;;;6.60;;
12776;SDS011;6452;41.572;23.732;2023-03-23T16:27:03;6.55;;;6.05;;
12776;SDS011;6452;41.572;23.732;2023-03-23T16:29:28;7.25;;;6.20;;
12776;SDS011;6452;41.572;23.732;2023-03-23T16:31:55;9.40;;;6.75;;
12776;SDS011;6452;41.572;23.732;2023-03-23T16:34:21;7.32;;;6.72;;
12776;SDS011;6452;41.572;23.732;2023-03-23T16:36:47;7.78;;;7.07;;
12776;SDS011;6452;41.572;23.732;2023-03-23T16:39:12;7.32;;;6.63;;
12776;SDS011;6452;41.572;23.732;2023-03-23T16:41:40;7.95;;;6.70;;
12776;SDS011;6452;41.572;23.732;2023-03-23T16:44:06;7.80;;;6.97;;
12776;SDS011;6452;41.572;23.732;2023-03-23T16:46:32;12.02;;;7.40;;
12776;SDS011;6452;41.572;23.732;2023-03-23T16:48:58;7.45;;;6.78;;
12776;SDS011;6452;41.572;23.732;2023-03-23T16:51:24;8.27;;;7.57;;
12776;SDS011;6452;41.572;23.732;2023-03-23T16:53:51;7.55;;;6.85;;
12776;SDS011;6452;41.572;23.732;2023-03-23T16:56:17;10.82;;;8.13;;
12776;SDS011;6452;41.572;23.732;2023-03-23T16:58:43;8.73;;;7.65;;
12776;SDS011;6452;41.572;23.732;2023-03-23T17:01:09;7.85;;;7.13;;
12776;SDS011;6452;41.572;23.732;2023-03-23T17:03:36;8.07;;;7.38;;